La Crescenta, California
Current Conditions -  °F | °C
As of 11:53 AM on Thursday 29 Jan 2015 (Local Time) from KBUR Reporting Station
Clear Clear  
Wind Chill: 21°   Ceiling: Unl
Heat Index: 21°   Visibility: 10mi
Dew Point:   Wind: 0mph
Humidity: 33%   Direction: NA
Pressure: 30.04"   Gusts: NA
Location:  34.22°N, 118.24°W
Report Text: KBUR 291953Z 00000KT 10SM CLR 21/04 A3004 RMK AO2 SLP159 T02110044
Loading
Personal Weather Stations






























Interactive Weather Map New forecast layout! Learn more

10-Day Weather Forecast

Advertisements
Track Severe Weather on mobile